sensor_id;sensor_type;location;lat;lon;timestamp;P1;durP1;ratioP1;P2;durP2;ratioP2
59922;SDS011;45778;51.142;3.732;2024-01-07T00:00:01;5.88;;;4.18;;
59922;SDS011;45778;51.142;3.732;2024-01-07T00:02:28;7.50;;;3.60;;
59922;SDS011;45778;51.142;3.732;2024-01-07T00:04:55;8.15;;;4.00;;
59922;SDS011;45778;51.142;3.732;2024-01-07T00:07:21;9.18;;;3.85;;
59922;SDS011;45778;51.142;3.732;2024-01-07T00:09:46;7.93;;;4.00;;
59922;SDS011;45778;51.142;3.732;2024-01-07T00:12:12;6.47;;;4.25;;
59922;SDS011;45778;51.142;3.732;2024-01-07T00:14:38;7.63;;;4.28;;
59922;SDS011;45778;51.142;3.732;2024-01-07T00:17:03;7.13;;;3.58;;
59922;SDS011;45778;51.142;3.732;2024-01-07T00:19:29;7.82;;;4.03;;
59922;SDS011;45778;51.142;3.732;2024-01-07T00:22:00;7.32;;;3.85;;
59922;SDS011;45778;51.142;3.732;2024-01-07T00:24:26;8.00;;;4.20;;
59922;SDS011;45778;51.142;3.732;2024-01-07T00:26:53;5.75;;;3.88;;
59922;SDS011;45778;51.142;3.732;2024-01-07T00:29:18;5.10;;;4.15;;
59922;SDS011;45778;51.142;3.732;2024-01-07T00:31:44;6.65;;;4.10;;
59922;SDS011;45778;51.142;3.732;2024-01-07T00:34:09;6.50;;;3.80;;
59922;SDS011;45778;51.142;3.732;2024-01-07T00:36:35;5.82;;;4.22;;
59922;SDS011;45778;51.142;3.732;2024-01-07T00:39:01;6.93;;;4.00;;
59922;SDS011;45778;51.142;3.732;2024-01-07T00:41:26;8.00;;;3.95;;
59922;SDS011;45778;51.142;3.732;2024-01-07T00:43:52;7.00;;;4.13;;
59922;SDS011;45778;51.142;3.732;2024-01-07T00:46:17;6.50;;;4.07;;
59922;SDS011;45778;51.142;3.732;2024-01-07T00:48:43;8.68;;;4.20;;
59922;SDS011;45778;51.142;3.732;2024-01-07T00:51:09;7.50;;;3.97;;
59922;SDS011;45778;51.142;3.732;2024-01-07T00:53:34;6.85;;;4.25;;
59922;SDS011;45778;51.142;3.732;2024-01-07T00:56:00;6.60;;;3.70;;
59922;SDS011;45778;51.142;3.732;2024-01-07T00:58:26;7.38;;;3.88;;
59922;SDS011;45778;51.142;3.732;2024-01-07T01:00:51;6.65;;;3.40;;
59922;SDS011;45778;51.142;3.732;2024-01-07T01:03:18;8.35;;;4.28;;
59922;SDS011;45778;51.142;3.732;2024-01-07T01:05:44;8.65;;;3.72;;
59922;SDS011;45778;51.142;3.732;2024-01-07T01:08:10;7.70;;;3.55;;
59922;SDS011;45778;51.142;3.732;2024-01-07T01:10:36;5.55;;;3.28;;
59922;SDS011;45778;51.142;3.732;2024-01-07T01:13:01;6.10;;;3.65;;
59922;SDS011;45778;51.142;3.732;2024-01-07T01:15:27;4.85;;;2.47;;
59922;SDS011;45778;51.142;3.732;2024-01-07T01:17:53;7.28;;;2.80;;
59922;SDS011;45778;51.142;3.732;2024-01-07T01:20:19;4.68;;;2.90;;
59922;SDS011;45778;51.142;3.732;2024-01-07T01:22:44;5.15;;;3.25;;
59922;SDS011;45778;51.142;3.732;2024-01-07T01:25:10;5.13;;;3.15;;
59922;SDS011;45778;51.142;3.732;2024-01-07T01:27:36;6.50;;;3.28;;
59922;SDS011;45778;51.142;3.732;2024-01-07T01:30:02;6.53;;;3.30;;
59922;SDS011;45778;51.142;3.732;2024-01-07T01:32:28;8.85;;;3.65;;
59922;SDS011;45778;51.142;3.732;2024-01-07T01:34:54;7.85;;;4.13;;
59922;SDS011;45778;51.142;3.732;2024-01-07T01:37:19;7.22;;;3.88;;
59922;SDS011;45778;51.142;3.732;2024-01-07T01:39:45;7.97;;;4.18;;
59922;SDS011;45778;51.142;3.732;2024-01-07T01:42:11;7.15;;;3.90;;
59922;SDS011;45778;51.142;3.732;2024-01-07T01:44:36;7.55;;;4.10;;
59922;SDS011;45778;51.142;3.732;2024-01-07T01:47:02;8.07;;;4.55;;
59922;SDS011;45778;51.142;3.732;2024-01-07T01:49:31;11.50;;;5.03;;
59922;SDS011;45778;51.142;3.732;2024-01-07T01:51:56;6.95;;;4.10;;
59922;SDS011;45778;51.142;3.732;2024-01-07T01:54:22;7.93;;;4.35;;
59922;SDS011;45778;51.142;3.732;2024-01-07T01:56:48;6.22;;;3.85;;
59922;SDS011;45778;51.142;3.732;2024-01-07T01:59:15;8.20;;;4.93;;
59922;SDS011;45778;51.142;3.732;2024-01-07T02:01:41;7.50;;;5.30;;
59922;SDS011;45778;51.142;3.732;2024-01-07T02:04:07;7.57;;;5.07;;
59922;SDS011;45778;51.142;3.732;2024-01-07T02:06:34;8.10;;;4.80;;
59922;SDS011;45778;51.142;3.732;2024-01-07T02:09:00;9.00;;;5.40;;
59922;SDS011;45778;51.142;3.732;2024-01-07T02:11:26;9.35;;;5.80;;
59922;SDS011;45778;51.142;3.732;2024-01-07T02:13:52;11.85;;;5.60;;
59922;SDS011;45778;51.142;3.732;2024-01-07T02:16:18;8.45;;;5.78;;
59922;SDS011;45778;51.142;3.732;2024-01-07T02:18:44;5.53;;;4.15;;
59922;SDS011;45778;51.142;3.732;2024-01-07T02:21:10;10.05;;;4.93;;
59922;SDS011;45778;51.142;3.732;2024-01-07T02:23:37;7.88;;;5.07;;
59922;SDS011;45778;51.142;3.732;2024-01-07T02:26:03;8.57;;;4.57;;
59922;SDS011;45778;51.142;3.732;2024-01-07T02:28:29;6.53;;;4.43;;
59922;SDS011;45778;51.142;3.732;2024-01-07T02:30:55;9.60;;;5.25;;
59922;SDS011;45778;51.142;3.732;2024-01-07T02:33:21;9.05;;;5.30;;
59922;SDS011;45778;51.142;3.732;2024-01-07T02:35:47;8.75;;;4.85;;
59922;SDS011;45778;51.142;3.732;2024-01-07T02:38:12;7.68;;;5.40;;
59922;SDS011;45778;51.142;3.732;2024-01-07T02:40:38;9.05;;;5.55;;
59922;SDS011;45778;51.142;3.732;2024-01-07T02:43:04;11.65;;;5.75;;
59922;SDS011;45778;51.142;3.732;2024-01-07T02:45:29;9.48;;;5.38;;
59922;SDS011;45778;51.142;3.732;2024-01-07T02:47:55;12.35;;;7.30;;
59922;SDS011;45778;51.142;3.732;2024-01-07T02:50:21;13.10;;;7.43;;
59922;SDS011;45778;51.142;3.732;2024-01-07T02:52:47;15.23;;;8.05;;
59922;SDS011;45778;51.142;3.732;2024-01-07T02:55:13;16.08;;;8.70;;
59922;SDS011;45778;51.142;3.732;2024-01-07T02:57:38;14.10;;;8.60;;
59922;SDS011;45778;51.142;3.732;2024-01-07T03:00:04;13.75;;;8.52;;
59922;SDS011;45778;51.142;3.732;2024-01-07T03:02:31;16.38;;;8.50;;
59922;SDS011;45778;51.142;3.732;2024-01-07T03:04:56;17.55;;;9.82;;
59922;SDS011;45778;51.142;3.732;2024-01-07T03:07:22;15.32;;;8.80;;
59922;SDS011;45778;51.142;3.732;2024-01-07T03:09:48;15.05;;;9.40;;
59922;SDS011;45778;51.142;3.732;2024-01-07T03:12:14;19.50;;;10.27;;
59922;SDS011;45778;51.142;3.732;2024-01-07T03:14:41;15.95;;;9.18;;
59922;SDS011;45778;51.142;3.732;2024-01-07T03:17:06;20.63;;;10.32;;
59922;SDS011;45778;51.142;3.732;2024-01-07T03:19:32;16.25;;;9.55;;
59922;SDS011;45778;51.142;3.732;2024-01-07T03:21:58;16.38;;;9.88;;
59922;SDS011;45778;51.142;3.732;2024-01-07T03:24:24;14.52;;;8.20;;
59922;SDS011;45778;51.142;3.732;2024-01-07T03:26:49;18.60;;;10.70;;
59922;SDS011;45778;51.142;3.732;2024-01-07T03:29:15;16.33;;;10.20;;
59922;SDS011;45778;51.142;3.732;2024-01-07T03:31:41;18.13;;;10.57;;
59922;SDS011;45778;51.142;3.732;2024-01-07T03:34:06;23.30;;;11.20;;
59922;SDS011;45778;51.142;3.732;2024-01-07T03:36:32;19.50;;;10.63;;
59922;SDS011;45778;51.142;3.732;2024-01-07T03:38:58;17.27;;;9.70;;
59922;SDS011;45778;51.142;3.732;2024-01-07T03:41:23;18.10;;;10.57;;
59922;SDS011;45778;51.142;3.732;2024-01-07T03:43:49;19.20;;;10.82;;
59922;SDS011;45778;51.142;3.732;2024-01-07T03:46:15;16.77;;;10.48;;
59922;SDS011;45778;51.142;3.732;2024-01-07T03:48:41;19.80;;;11.63;;
59922;SDS011;45778;51.142;3.732;2024-01-07T03:51:07;19.27;;;10.77;;
59922;SDS011;45778;51.142;3.732;2024-01-07T03:53:33;25.48;;;11.63;;
59922;SDS011;45778;51.142;3.732;2024-01-07T03:55:59;26.58;;;12.82;;
59922;SDS011;45778;51.142;3.732;2024-01-07T03:58:25;13.85;;;9.77;;
59922;SDS011;45778;51.142;3.732;2024-01-07T04:00:50;13.45;;;8.30;;
59922;SDS011;45778;51.142;3.732;2024-01-07T04:03:16;12.48;;;8.05;;
59922;SDS011;45778;51.142;3.732;2024-01-07T04:05:42;11.50;;;6.93;;
59922;SDS011;45778;51.142;3.732;2024-01-07T04:08:10;11.68;;;8.07;;
59922;SDS011;45778;51.142;3.732;2024-01-07T04:10:36;10.68;;;7.72;;
59922;SDS011;45778;51.142;3.732;2024-01-07T04:13:02;15.80;;;8.10;;
59922;SDS011;45778;51.142;3.732;2024-01-07T04:15:29;12.30;;;7.82;;
59922;SDS011;45778;51.142;3.732;2024-01-07T04:17:54;14.27;;;8.90;;
59922;SDS011;45778;51.142;3.732;2024-01-07T04:20:20;13.68;;;8.50;;
59922;SDS011;45778;51.142;3.732;2024-01-07T04:22:46;14.68;;;8.48;;
59922;SDS011;45778;51.142;3.732;2024-01-07T04:25:11;12.63;;;7.90;;
59922;SDS011;45778;51.142;3.732;2024-01-07T04:27:37;11.32;;;7.55;;
59922;SDS011;45778;51.142;3.732;2024-01-07T04:30:04;13.38;;;7.53;;
59922;SDS011;45778;51.142;3.732;2024-01-07T04:32:30;11.02;;;7.85;;
59922;SDS011;45778;51.142;3.732;2024-01-07T04:34:56;12.00;;;8.27;;
59922;SDS011;45778;51.142;3.732;2024-01-07T04:37:23;13.75;;;8.60;;
59922;SDS011;45778;51.142;3.732;2024-01-07T04:39:49;12.43;;;7.68;;
59922;SDS011;45778;51.142;3.732;2024-01-07T04:42:15;11.90;;;7.43;;
59922;SDS011;45778;51.142;3.732;2024-01-07T04:44:42;12.80;;;8.45;;
59922;SDS011;45778;51.142;3.732;2024-01-07T04:50:08;11.13;;;6.60;;
59922;SDS011;45778;51.142;3.732;2024-01-07T04:52:34;12.52;;;7.32;;
59922;SDS011;45778;51.142;3.732;2024-01-07T04:55:00;11.82;;;7.50;;
59922;SDS011;45778;51.142;3.732;2024-01-07T04:57:25;10.90;;;6.35;;
59922;SDS011;45778;51.142;3.732;2024-01-07T04:59:51;10.77;;;6.35;;
59922;SDS011;45778;51.142;3.732;2024-01-07T05:02:17;9.55;;;6.07;;
59922;SDS011;45778;51.142;3.732;2024-01-07T05:04:43;9.65;;;6.63;;
59922;SDS011;45778;51.142;3.732;2024-01-07T05:07:08;10.90;;;6.00;;
59922;SDS011;45778;51.142;3.732;2024-01-07T05:09:34;9.10;;;5.82;;
59922;SDS011;45778;51.142;3.732;2024-01-07T05:12:00;9.90;;;6.45;;
59922;SDS011;45778;51.142;3.732;2024-01-07T05:14:26;9.68;;;6.55;;
59922;SDS011;45778;51.142;3.732;2024-01-07T05:16:55;9.45;;;6.03;;
59922;SDS011;45778;51.142;3.732;2024-01-07T05:19:21;10.13;;;5.60;;
59922;SDS011;45778;51.142;3.732;2024-01-07T05:21:46;10.52;;;6.60;;
59922;SDS011;45778;51.142;3.732;2024-01-07T05:24:12;8.93;;;5.68;;
59922;SDS011;45778;51.142;3.732;2024-01-07T05:26:41;12.43;;;6.63;;
59922;SDS011;45778;51.142;3.732;2024-01-07T05:29:08;12.27;;;6.60;;
59922;SDS011;45778;51.142;3.732;2024-01-07T05:31:34;8.60;;;5.03;;
59922;SDS011;45778;51.142;3.732;2024-01-07T05:34:00;11.15;;;6.05;;
59922;SDS011;45778;51.142;3.732;2024-01-07T05:36:25;11.40;;;5.95;;
59922;SDS011;45778;51.142;3.732;2024-01-07T05:38:51;10.77;;;6.60;;
59922;SDS011;45778;51.142;3.732;2024-01-07T05:41:17;10.30;;;6.53;;
59922;SDS011;45778;51.142;3.732;2024-01-07T05:43:42;9.68;;;5.85;;
59922;SDS011;45778;51.142;3.732;2024-01-07T05:46:08;8.50;;;6.20;;
59922;SDS011;45778;51.142;3.732;2024-01-07T05:48:52;13.00;;;7.25;;
59922;SDS011;45778;51.142;3.732;2024-01-07T05:51:18;10.07;;;6.38;;
59922;SDS011;45778;51.142;3.732;2024-01-07T05:53:44;12.00;;;6.63;;
59922;SDS011;45778;51.142;3.732;2024-01-07T05:56:10;10.85;;;6.63;;
59922;SDS011;45778;51.142;3.732;2024-01-07T05:58:36;9.93;;;6.15;;
59922;SDS011;45778;51.142;3.732;2024-01-07T06:01:02;9.40;;;6.25;;
59922;SDS011;45778;51.142;3.732;2024-01-07T06:03:27;11.10;;;6.90;;
59922;SDS011;45778;51.142;3.732;2024-01-07T06:05:53;11.23;;;6.15;;
59922;SDS011;45778;51.142;3.732;2024-01-07T06:08:18;12.88;;;6.78;;
59922;SDS011;45778;51.142;3.732;2024-01-07T06:10:44;11.50;;;7.15;;
59922;SDS011;45778;51.142;3.732;2024-01-07T06:13:10;11.68;;;6.93;;
59922;SDS011;45778;51.142;3.732;2024-01-07T06:15:35;9.60;;;6.50;;
59922;SDS011;45778;51.142;3.732;2024-01-07T06:18:01;13.23;;;7.18;;
59922;SDS011;45778;51.142;3.732;2024-01-07T06:20:27;12.25;;;7.35;;
59922;SDS011;45778;51.142;3.732;2024-01-07T06:22:53;13.00;;;7.63;;
59922;SDS011;45778;51.142;3.732;2024-01-07T06:25:19;13.20;;;8.13;;
59922;SDS011;45778;51.142;3.732;2024-01-07T06:27:45;11.88;;;6.57;;
59922;SDS011;45778;51.142;3.732;2024-01-07T06:30:11;12.18;;;7.07;;
59922;SDS011;45778;51.142;3.732;2024-01-07T06:32:37;12.40;;;7.25;;
59922;SDS011;45778;51.142;3.732;2024-01-07T06:35:02;14.93;;;8.35;;
59922;SDS011;45778;51.142;3.732;2024-01-07T06:37:29;13.38;;;7.85;;
59922;SDS011;45778;51.142;3.732;2024-01-07T06:39:55;15.55;;;8.70;;
59922;SDS011;45778;51.142;3.732;2024-01-07T06:42:23;14.43;;;7.85;;
59922;SDS011;45778;51.142;3.732;2024-01-07T06:44:49;13.25;;;7.63;;
59922;SDS011;45778;51.142;3.732;2024-01-07T06:47:14;12.55;;;7.93;;
59922;SDS011;45778;51.142;3.732;2024-01-07T06:49:40;13.93;;;7.90;;
59922;SDS011;45778;51.142;3.732;2024-01-07T06:52:06;14.20;;;8.23;;
59922;SDS011;45778;51.142;3.732;2024-01-07T06:54:32;12.85;;;7.90;;
59922;SDS011;45778;51.142;3.732;2024-01-07T06:56:58;16.02;;;8.13;;
59922;SDS011;45778;51.142;3.732;2024-01-07T06:59:23;12.18;;;7.35;;
59922;SDS011;45778;51.142;3.732;2024-01-07T07:01:49;13.32;;;8.05;;
59922;SDS011;45778;51.142;3.732;2024-01-07T07:04:15;16.92;;;9.35;;
59922;SDS011;45778;51.142;3.732;2024-01-07T07:06:40;14.82;;;8.65;;
59922;SDS011;45778;51.142;3.732;2024-01-07T07:09:06;14.30;;;8.00;;
59922;SDS011;45778;51.142;3.732;2024-01-07T07:11:32;14.65;;;8.68;;
59922;SDS011;45778;51.142;3.732;2024-01-07T07:13:58;16.50;;;9.18;;
59922;SDS011;45778;51.142;3.732;2024-01-07T07:16:23;17.30;;;9.00;;
59922;SDS011;45778;51.142;3.732;2024-01-07T07:18:50;14.50;;;8.27;;
59922;SDS011;45778;51.142;3.732;2024-01-07T07:21:15;15.25;;;9.20;;
59922;SDS011;45778;51.142;3.732;2024-01-07T07:23:41;17.17;;;9.00;;
59922;SDS011;45778;51.142;3.732;2024-01-07T07:26:07;15.43;;;9.63;;
59922;SDS011;45778;51.142;3.732;2024-01-07T07:28:33;18.30;;;10.65;;
59922;SDS011;45778;51.142;3.732;2024-01-07T07:30:58;18.15;;;9.02;;
59922;SDS011;45778;51.142;3.732;2024-01-07T07:33:24;16.52;;;9.18;;
59922;SDS011;45778;51.142;3.732;2024-01-07T07:35:50;19.92;;;10.65;;
59922;SDS011;45778;51.142;3.732;2024-01-07T07:38:15;19.45;;;9.82;;
59922;SDS011;45778;51.142;3.732;2024-01-07T07:40:41;21.58;;;10.73;;
59922;SDS011;45778;51.142;3.732;2024-01-07T07:43:07;19.13;;;10.68;;
59922;SDS011;45778;51.142;3.732;2024-01-07T07:45:33;20.38;;;10.90;;
59922;SDS011;45778;51.142;3.732;2024-01-07T07:47:59;20.45;;;10.63;;
59922;SDS011;45778;51.142;3.732;2024-01-07T07:50:25;21.38;;;11.73;;
59922;SDS011;45778;51.142;3.732;2024-01-07T07:52:50;18.02;;;10.45;;
59922;SDS011;45778;51.142;3.732;2024-01-07T07:55:16;21.20;;;11.48;;
59922;SDS011;45778;51.142;3.732;2024-01-07T07:57:42;23.77;;;11.57;;
59922;SDS011;45778;51.142;3.732;2024-01-07T08:00:07;21.35;;;11.98;;
59922;SDS011;45778;51.142;3.732;2024-01-07T08:02:37;23.88;;;12.45;;
59922;SDS011;45778;51.142;3.732;2024-01-07T08:05:04;20.75;;;11.45;;
59922;SDS011;45778;51.142;3.732;2024-01-07T08:07:31;21.17;;;11.90;;
59922;SDS011;45778;51.142;3.732;2024-01-07T08:09:56;23.38;;;12.73;;
59922;SDS011;45778;51.142;3.732;2024-01-07T08:12:23;23.15;;;11.10;;
59922;SDS011;45778;51.142;3.732;2024-01-07T08:14:48;22.90;;;11.52;;
59922;SDS011;45778;51.142;3.732;2024-01-07T08:17:14;22.63;;;12.48;;
59922;SDS011;45778;51.142;3.732;2024-01-07T08:19:40;22.08;;;12.07;;
59922;SDS011;45778;51.142;3.732;2024-01-07T08:22:05;24.85;;;11.65;;
59922;SDS011;45778;51.142;3.732;2024-01-07T08:24:31;23.50;;;11.85;;
59922;SDS011;45778;51.142;3.732;2024-01-07T08:26:57;23.52;;;13.10;;
59922;SDS011;45778;51.142;3.732;2024-01-07T08:29:22;26.02;;;12.90;;
59922;SDS011;45778;51.142;3.732;2024-01-07T08:31:48;22.88;;;12.02;;
59922;SDS011;45778;51.142;3.732;2024-01-07T08:34:14;25.00;;;14.23;;
59922;SDS011;45778;51.142;3.732;2024-01-07T08:36:40;23.70;;;11.40;;
59922;SDS011;45778;51.142;3.732;2024-01-07T08:39:06;24.02;;;12.38;;
59922;SDS011;45778;51.142;3.732;2024-01-07T08:41:33;21.17;;;11.63;;
59922;SDS011;45778;51.142;3.732;2024-01-07T08:43:58;22.00;;;12.38;;
59922;SDS011;45778;51.142;3.732;2024-01-07T08:46:24;25.17;;;12.30;;
59922;SDS011;45778;51.142;3.732;2024-01-07T08:48:50;23.83;;;12.20;;
59922;SDS011;45778;51.142;3.732;2024-01-07T08:51:15;24.58;;;12.43;;
59922;SDS011;45778;51.142;3.732;2024-01-07T08:53:41;22.52;;;11.45;;
59922;SDS011;45778;51.142;3.732;2024-01-07T08:56:07;25.20;;;13.75;;
59922;SDS011;45778;51.142;3.732;2024-01-07T08:58:33;23.63;;;13.00;;
59922;SDS011;45778;51.142;3.732;2024-01-07T09:00:59;24.77;;;13.75;;
59922;SDS011;45778;51.142;3.732;2024-01-07T09:03:25;28.90;;;13.95;;
59922;SDS011;45778;51.142;3.732;2024-01-07T09:05:50;23.95;;;13.73;;
59922;SDS011;45778;51.142;3.732;2024-01-07T09:08:16;19.80;;;10.43;;
59922;SDS011;45778;51.142;3.732;2024-01-07T09:10:41;24.80;;;12.90;;
59922;SDS011;45778;51.142;3.732;2024-01-07T09:13:07;27.50;;;13.05;;
59922;SDS011;45778;51.142;3.732;2024-01-07T09:15:33;23.17;;;13.10;;
59922;SDS011;45778;51.142;3.732;2024-01-07T09:17:58;29.13;;;13.40;;
59922;SDS011;45778;51.142;3.732;2024-01-07T09:20:24;25.77;;;13.35;;
59922;SDS011;45778;51.142;3.732;2024-01-07T09:22:50;26.42;;;12.48;;
59922;SDS011;45778;51.142;3.732;2024-01-07T09:25:15;24.75;;;12.98;;
59922;SDS011;45778;51.142;3.732;2024-01-07T09:27:41;26.50;;;12.65;;
59922;SDS011;45778;51.142;3.732;2024-01-07T09:30:08;24.20;;;12.48;;
59922;SDS011;45778;51.142;3.732;2024-01-07T09:32:35;29.17;;;14.23;;
59922;SDS011;45778;51.142;3.732;2024-01-07T09:35:01;25.40;;;13.02;;
59922;SDS011;45778;51.142;3.732;2024-01-07T09:37:28;29.52;;;13.77;;
59922;SDS011;45778;51.142;3.732;2024-01-07T09:39:53;16.98;;;9.68;;
59922;SDS011;45778;51.142;3.732;2024-01-07T09:42:19;29.00;;;13.95;;
59922;SDS011;45778;51.142;3.732;2024-01-07T09:44:45;26.80;;;13.88;;
59922;SDS011;45778;51.142;3.732;2024-01-07T09:47:11;24.90;;;13.20;;
59922;SDS011;45778;51.142;3.732;2024-01-07T09:49:38;25.20;;;12.32;;
59922;SDS011;45778;51.142;3.732;2024-01-07T09:52:05;24.60;;;11.43;;
59922;SDS011;45778;51.142;3.732;2024-01-07T09:54:32;20.77;;;11.55;;
59922;SDS011;45778;51.142;3.732;2024-01-07T09:57:01;24.98;;;14.10;;
59922;SDS011;45778;51.142;3.732;2024-01-07T09:59:28;22.08;;;11.55;;
59922;SDS011;45778;51.142;3.732;2024-01-07T10:01:55;22.65;;;11.27;;
59922;SDS011;45778;51.142;3.732;2024-01-07T10:04:21;23.60;;;12.15;;
59922;SDS011;45778;51.142;3.732;2024-01-07T10:06:48;24.33;;;12.38;;
59922;SDS011;45778;51.142;3.732;2024-01-07T10:09:21;22.38;;;12.50;;
59922;SDS011;45778;51.142;3.732;2024-01-07T10:11:49;22.05;;;11.82;;
59922;SDS011;45778;51.142;3.732;2024-01-07T10:14:15;23.25;;;11.88;;
59922;SDS011;45778;51.142;3.732;2024-01-07T10:16:40;20.75;;;11.05;;
59922;SDS011;45778;51.142;3.732;2024-01-07T10:19:06;19.85;;;12.25;;
59922;SDS011;45778;51.142;3.732;2024-01-07T10:21:32;19.17;;;11.40;;
59922;SDS011;45778;51.142;3.732;2024-01-07T10:24:11;19.92;;;11.75;;
59922;SDS011;45778;51.142;3.732;2024-01-07T10:26:38;21.42;;;11.10;;
59922;SDS011;45778;51.142;3.732;2024-01-07T10:29:04;18.05;;;10.20;;
59922;SDS011;45778;51.142;3.732;2024-01-07T10:31:31;18.65;;;11.82;;
59922;SDS011;45778;51.142;3.732;2024-01-07T10:33:57;19.08;;;11.02;;
59922;SDS011;45778;51.142;3.732;2024-01-07T10:36:24;21.30;;;10.95;;
59922;SDS011;45778;51.142;3.732;2024-01-07T10:38:50;18.05;;;11.77;;
59922;SDS011;45778;51.142;3.732;2024-01-07T10:41:19;17.83;;;9.63;;
59922;SDS011;45778;51.142;3.732;2024-01-07T10:43:46;18.25;;;10.38;;
59922;SDS011;45778;51.142;3.732;2024-01-07T10:46:13;18.85;;;10.70;;
59922;SDS011;45778;51.142;3.732;2024-01-07T10:48:48;20.52;;;11.07;;
59922;SDS011;45778;51.142;3.732;2024-01-07T10:51:20;21.50;;;10.55;;
59922;SDS011;45778;51.142;3.732;2024-01-07T10:53:46;18.75;;;10.90;;
59922;SDS011;45778;51.142;3.732;2024-01-07T10:56:24;21.30;;;11.55;;
59922;SDS011;45778;51.142;3.732;2024-01-07T10:58:53;20.35;;;12.38;;
59922;SDS011;45778;51.142;3.732;2024-01-07T11:01:20;17.13;;;9.60;;
59922;SDS011;45778;51.142;3.732;2024-01-07T11:03:54;22.45;;;11.68;;
59922;SDS011;45778;51.142;3.732;2024-01-07T11:09:39;22.58;;;11.25;;
59922;SDS011;45778;51.142;3.732;2024-01-07T11:12:16;21.30;;;11.45;;
59922;SDS011;45778;51.142;3.732;2024-01-07T11:14:42;19.98;;;11.82;;
59922;SDS011;45778;51.142;3.732;2024-01-07T11:20:23;22.17;;;14.05;;
59922;SDS011;45778;51.142;3.732;2024-01-07T11:22:51;21.42;;;10.68;;
59922;SDS011;45778;51.142;3.732;2024-01-07T11:25:33;20.98;;;11.68;;
59922;SDS011;45778;51.142;3.732;2024-01-07T11:28:02;18.65;;;10.35;;
59922;SDS011;45778;51.142;3.732;2024-01-07T11:30:28;16.55;;;10.70;;
59922;SDS011;45778;51.142;3.732;2024-01-07T11:32:57;19.92;;;10.18;;
59922;SDS011;45778;51.142;3.732;2024-01-07T11:38:21;14.40;;;8.10;;
59922;SDS011;45778;51.142;3.732;2024-01-07T11:40:47;16.70;;;10.68;;
59922;SDS011;45778;51.142;3.732;2024-01-07T11:43:15;21.02;;;11.02;;
59922;SDS011;45778;51.142;3.732;2024-01-07T11:45:40;16.30;;;9.57;;
59922;SDS011;45778;51.142;3.732;2024-01-07T11:48:06;16.88;;;10.27;;
59922;SDS011;45778;51.142;3.732;2024-01-07T11:50:32;19.73;;;9.68;;
59922;SDS011;45778;51.142;3.732;2024-01-07T11:52:59;16.40;;;11.07;;
59922;SDS011;45778;51.142;3.732;2024-01-07T11:55:25;18.85;;;10.95;;
59922;SDS011;45778;51.142;3.732;2024-01-07T11:57:52;16.45;;;9.23;;
59922;SDS011;45778;51.142;3.732;2024-01-07T12:00:17;16.80;;;10.48;;
59922;SDS011;45778;51.142;3.732;2024-01-07T12:02:43;18.80;;;9.95;;
59922;SDS011;45778;51.142;3.732;2024-01-07T12:05:10;20.08;;;12.02;;
59922;SDS011;45778;51.142;3.732;2024-01-07T12:07:37;18.95;;;11.45;;
59922;SDS011;45778;51.142;3.732;2024-01-07T12:10:06;19.13;;;10.73;;
59922;SDS011;45778;51.142;3.732;2024-01-07T12:12:36;19.70;;;10.70;;
59922;SDS011;45778;51.142;3.732;2024-01-07T12:15:05;17.90;;;10.65;;
59922;SDS011;45778;51.142;3.732;2024-01-07T12:17:33;19.88;;;10.90;;
59922;SDS011;45778;51.142;3.732;2024-01-07T12:19:59;16.02;;;8.20;;
59922;SDS011;45778;51.142;3.732;2024-01-07T12:22:27;18.48;;;11.15;;
59922;SDS011;45778;51.142;3.732;2024-01-07T12:25:05;19.17;;;10.95;;
59922;SDS011;45778;51.142;3.732;2024-01-07T12:27:31;21.42;;;10.77;;
59922;SDS011;45778;51.142;3.732;2024-01-07T12:29:59;22.55;;;11.10;;
59922;SDS011;45778;51.142;3.732;2024-01-07T12:32:29;19.83;;;11.00;;
59922;SDS011;45778;51.142;3.732;2024-01-07T12:34:59;20.92;;;10.68;;
59922;SDS011;45778;51.142;3.732;2024-01-07T12:37:28;17.10;;;9.57;;
59922;SDS011;45778;51.142;3.732;2024-01-07T12:39:54;21.08;;;10.90;;
59922;SDS011;45778;51.142;3.732;2024-01-07T12:42:20;17.02;;;10.65;;
59922;SDS011;45778;51.142;3.732;2024-01-07T12:44:49;18.65;;;11.07;;
59922;SDS011;45778;51.142;3.732;2024-01-07T12:47:16;17.58;;;10.23;;
59922;SDS011;45778;51.142;3.732;2024-01-07T12:49:42;23.83;;;13.70;;
59922;SDS011;45778;51.142;3.732;2024-01-07T12:52:07;15.88;;;10.98;;
59922;SDS011;45778;51.142;3.732;2024-01-07T12:54:34;20.10;;;12.10;;
59922;SDS011;45778;51.142;3.732;2024-01-07T12:57:00;18.55;;;11.32;;
59922;SDS011;45778;51.142;3.732;2024-01-07T12:59:25;19.20;;;11.60;;
59922;SDS011;45778;51.142;3.732;2024-01-07T13:01:51;18.00;;;10.65;;
59922;SDS011;45778;51.142;3.732;2024-01-07T13:04:17;15.57;;;9.40;;
59922;SDS011;45778;51.142;3.732;2024-01-07T13:06:44;14.13;;;8.85;;
59922;SDS011;45778;51.142;3.732;2024-01-07T13:09:10;15.25;;;8.60;;
59922;SDS011;45778;51.142;3.732;2024-01-07T13:11:36;14.60;;;9.05;;
59922;SDS011;45778;51.142;3.732;2024-01-07T13:14:02;13.98;;;8.70;;
59922;SDS011;45778;51.142;3.732;2024-01-07T13:16:27;15.43;;;8.35;;
59922;SDS011;45778;51.142;3.732;2024-01-07T13:18:53;17.65;;;9.48;;
59922;SDS011;45778;51.142;3.732;2024-01-07T13:21:20;15.32;;;9.23;;
59922;SDS011;45778;51.142;3.732;2024-01-07T13:23:46;16.90;;;9.95;;
59922;SDS011;45778;51.142;3.732;2024-01-07T13:26:13;18.52;;;9.82;;
59922;SDS011;45778;51.142;3.732;2024-01-07T13:28:39;12.25;;;7.43;;
59922;SDS011;45778;51.142;3.732;2024-01-07T13:31:05;11.13;;;8.05;;
59922;SDS011;45778;51.142;3.732;2024-01-07T13:33:31;12.48;;;8.52;;
59922;SDS011;45778;51.142;3.732;2024-01-07T13:35:58;12.25;;;7.85;;
59922;SDS011;45778;51.142;3.732;2024-01-07T13:38:24;13.48;;;7.50;;
59922;SDS011;45778;51.142;3.732;2024-01-07T13:40:49;15.07;;;9.07;;
59922;SDS011;45778;51.142;3.732;2024-01-07T13:43:15;13.48;;;8.23;;
59922;SDS011;45778;51.142;3.732;2024-01-07T13:45:41;14.18;;;8.23;;
59922;SDS011;45778;51.142;3.732;2024-01-07T13:48:07;13.77;;;8.85;;
59922;SDS011;45778;51.142;3.732;2024-01-07T13:50:34;14.70;;;9.25;;
59922;SDS011;45778;51.142;3.732;2024-01-07T13:52:59;15.68;;;8.43;;
59922;SDS011;45778;51.142;3.732;2024-01-07T13:55:25;13.38;;;8.13;;
59922;SDS011;45778;51.142;3.732;2024-01-07T13:57:50;15.38;;;9.10;;
59922;SDS011;45778;51.142;3.732;2024-01-07T14:00:16;14.63;;;7.97;;
59922;SDS011;45778;51.142;3.732;2024-01-07T14:02:43;12.70;;;7.40;;
59922;SDS011;45778;51.142;3.732;2024-01-07T14:05:11;11.25;;;6.88;;
59922;SDS011;45778;51.142;3.732;2024-01-07T14:07:37;11.45;;;7.15;;
59922;SDS011;45778;51.142;3.732;2024-01-07T14:10:03;14.38;;;7.63;;
59922;SDS011;45778;51.142;3.732;2024-01-07T14:12:30;10.60;;;7.70;;
59922;SDS011;45778;51.142;3.732;2024-01-07T14:14:56;12.55;;;7.72;;
59922;SDS011;45778;51.142;3.732;2024-01-07T14:17:23;12.35;;;7.75;;
59922;SDS011;45778;51.142;3.732;2024-01-07T14:19:49;14.52;;;8.60;;
59922;SDS011;45778;51.142;3.732;2024-01-07T14:22:17;15.02;;;7.85;;
59922;SDS011;45778;51.142;3.732;2024-01-07T14:24:43;13.30;;;7.38;;
59922;SDS011;45778;51.142;3.732;2024-01-07T14:27:08;14.85;;;9.35;;
59922;SDS011;45778;51.142;3.732;2024-01-07T14:29:36;13.95;;;8.43;;
59922;SDS011;45778;51.142;3.732;2024-01-07T14:32:02;14.48;;;8.02;;
59922;SDS011;45778;51.142;3.732;2024-01-07T14:34:29;15.07;;;8.55;;
59922;SDS011;45778;51.142;3.732;2024-01-07T14:36:55;13.57;;;7.80;;
59922;SDS011;45778;51.142;3.732;2024-01-07T14:39:21;14.38;;;8.50;;